Time;durP1;ratioP1;P1;durP2;ratioP2;P2;SDS_P1;SDS_P2;PMS_P1;PMS_P2;Temp;Humidity;BMP_temperature;BMP_pressure;BME280_temperature;BME280_humidity;BME280_pressure;Samples;Min_cycle;Max_cycle;Signal;HPM_P1;HPM_P2
2023/05/27 00:00:07;;;;;;;10.85;3.78;;;9.70;99.90;;;;;;4992246;28;20068;-83
2023/05/27 00:02:33;;;;;;;14.02;3.40;;;9.40;99.90;;;;;;4992730;28;20041;-84
2023/05/27 00:04:59;;;;;;;13.73;3.70;;;11.60;99.90;;;;;;5009676;28;20048;-82
2023/05/27 00:07:24;;;;;;;14.35;3.70;;;9.30;99.90;;;;;;4988182;28;20065;-82
2023/05/27 00:09:51;;;;;;;11.93;3.28;;;9.70;99.90;;;;;;4997977;28;20053;-82
2023/05/27 00:12:20;;;;;;;12.90;3.80;;;9.20;99.90;;;;;;5009569;28;20124;-82
2023/05/27 00:14:46;;;;;;;13.13;4.10;;;9.10;99.90;;;;;;5009719;28;20168;-83
2023/05/27 00:17:13;;;;;;;17.20;3.97;;;9.10;99.90;;;;;;5005296;28;20113;-83
2023/05/27 00:19:40;;;;;;;12.13;2.85;;;9.10;99.90;;;;;;4992325;28;20042;-84
2023/05/27 00:22:06;;;;;;;12.32;2.97;;;9.10;99.90;;;;;;5009516;28;20042;-83
2023/05/27 00:24:36;;;;;;;9.10;3.45;;;10.90;99.90;;;;;;5010061;28;20041;-83
2023/05/27 00:27:02;;;;;;;16.73;3.95;;;9.00;99.90;;;;;;5009378;28;20034;-83
2023/05/27 00:29:28;;;;;;;8.65;2.88;;;8.90;99.90;;;;;;5009526;28;20084;-82
2023/05/27 00:31:54;;;;;;;12.85;3.40;;;8.90;99.90;;;;;;5006870;28;20070;-81
2023/05/27 00:34:19;;;;;;;10.20;3.15;;;9.00;99.90;;;;;;4986418;28;20133;-81
2023/05/27 00:36:45;;;;;;;10.80;3.20;;;8.90;99.90;;;;;;5009910;28;20187;-83
2023/05/27 00:39:11;;;;;;;9.20;3.03;;;9.60;99.90;;;;;;4984551;28;20045;-83
2023/05/27 00:41:37;;;;;;;13.90;3.28;;;8.80;99.90;;;;;;5014959;28;20050;-82
2023/05/27 00:44:03;;;;;;;12.15;3.88;;;9.30;99.90;;;;;;5007601;28;20045;-82
2023/05/27 00:46:29;;;;;;;11.35;3.50;;;11.00;99.90;;;;;;5016192;28;20037;-80
2023/05/27 00:48:55;;;;;;;10.27;3.00;;;8.50;99.90;;;;;;5010031;28;20394;-81
2023/05/27 00:51:21;;;;;;;8.32;3.20;;;8.70;99.90;;;;;;4991848;28;20038;-81
2023/05/27 00:53:46;;;;;;;12.38;3.92;;;8.70;99.90;;;;;;5009540;28;20452;-82
2023/05/27 00:56:15;;;;;;;11.82;4.25;;;8.60;99.90;;;;;;4991550;28;20417;-81
2023/05/27 00:58:41;;;;;;;8.32;3.50;;;10.70;99.90;;;;;;5001431;28;20046;-83
2023/05/27 01:01:07;;;;;;;11.45;3.63;;;8.50;99.90;;;;;;5004637;28;20478;-82
2023/05/27 01:03:34;;;;;;;8.30;2.90;;;8.60;99.90;;;;;;5005264;28;20121;-83
2023/05/27 01:06:33;;;;;;;10.13;3.85;;;10.90;99.90;;;;;;5001115;28;20077;-83
2023/05/27 01:09:24;;;;;;;10.85;3.17;;;10.00;99.90;;;;;;5008875;28;20077;-83
2023/05/27 01:12:14;;;;;;;17.55;3.78;;;8.40;99.90;;;;;;5000488;28;20046;-82
2023/05/27 01:14:43;;;;;;;11.98;3.20;;;8.40;99.90;;;;;;5006303;28;20104;-82
2023/05/27 01:17:10;;;;;;;10.57;3.85;;;8.50;99.90;;;;;;5008143;28;20037;-83
2023/05/27 01:19:47;;;;;;;8.05;2.60;;;8.80;99.90;;;;;;5005787;28;20125;-83
2023/05/27 01:22:14;;;;;;;11.65;3.10;;;8.60;99.90;;;;;;5008177;28;20054;-80
2023/05/27 01:24:43;;;;;;;10.32;4.00;;;8.60;99.90;;;;;;5005309;28;20189;-83
2023/05/27 01:27:15;;;;;;;12.05;3.15;;;8.50;99.90;;;;;;5009042;28;20200;-83
2023/05/27 01:29:41;;;;;;;12.60;3.25;;;8.30;99.90;;;;;;4991504;28;20053;-83
2023/05/27 01:32:27;;;;;;;11.25;3.75;;;8.50;99.90;;;;;;5008381;28;20034;-82
2023/05/27 01:35:03;;;;;;;9.43;3.50;;;8.40;99.90;;;;;;5008995;28;20173;-83
2023/05/27 01:37:33;;;;;;;9.95;3.53;;;8.40;99.90;;;;;;5008554;28;20050;-82
2023/05/27 01:40:00;;;;;;;12.55;3.60;;;7.90;99.90;;;;;;5000279;28;20119;-81
2023/05/27 01:42:26;;;;;;;12.38;3.80;;;9.00;99.90;;;;;;5000857;28;20671;-82
2023/05/27 01:44:53;;;;;;;9.90;3.38;;;8.30;99.90;;;;;;5007576;28;20156;-82
2023/05/27 01:47:19;;;;;;;11.20;3.33;;;8.30;99.90;;;;;;5008796;28;20049;-83
2023/05/27 01:49:45;;;;;;;9.45;3.47;;;8.20;99.90;;;;;;5000559;28;20046;-83
2023/05/27 01:52:11;;;;;;;9.60;3.50;;;8.20;99.90;;;;;;4982517;28;20049;-83
2023/05/27 01:54:36;;;;;;;7.53;3.38;;;10.30;99.90;;;;;;4982536;28;20358;-83
2023/05/27 01:57:03;;;;;;;13.32;4.22;;;8.20;99.90;;;;;;5008490;28;20034;-83
2023/05/27 01:59:29;;;;;;;10.52;3.78;;;8.10;99.90;;;;;;4981182;28;20058;-83
2023/05/27 02:01:55;;;;;;;12.15;3.45;;;10.00;99.90;;;;;;5005953;28;20133;-82
2023/05/27 02:04:20;;;;;;;11.30;3.85;;;10.10;99.90;;;;;;4985144;28;20053;-81
2023/05/27 02:06:46;;;;;;;10.55;3.63;;;10.10;99.90;;;;;;5007917;28;20096;-82
2023/05/27 02:09:13;;;;;;;11.43;3.85;;;8.10;99.90;;;;;;5003976;28;20069;-84
2023/05/27 02:11:38;;;;;;;7.60;2.70;;;8.80;99.90;;;;;;5005671;28;20095;-83
2023/05/27 02:14:05;;;;;;;10.50;3.15;;;9.90;99.90;;;;;;5002907;28;20050;-83
2023/05/27 02:16:33;;;;;;;15.77;3.50;;;9.00;99.90;;;;;;5003930;28;20073;-82
2023/05/27 02:19:00;;;;;;;10.73;3.63;;;9.90;99.90;;;;;;5008366;28;20686;-82
2023/05/27 02:21:26;;;;;;;10.48;3.00;;;8.00;99.90;;;;;;5000129;28;20054;-83
2023/05/27 02:23:52;;;;;;;6.78;2.65;;;8.70;99.90;;;;;;5007302;28;20096;-82
2023/05/27 02:26:17;;;;;;;10.77;3.22;;;10.60;99.90;;;;;;4985074;28;20128;-83
2023/05/27 02:28:43;;;;;;;9.82;3.50;;;8.10;99.90;;;;;;5007622;28;20042;-83
2023/05/27 02:31:09;;;;;;;7.30;3.20;;;8.10;99.90;;;;;;5004546;28;20042;-78
2023/05/27 02:33:34;;;;;;;7.97;3.15;;;10.20;99.90;;;;;;5001369;28;20112;-81
2023/05/27 02:36:00;;;;;;;9.90;3.20;;;8.10;99.90;;;;;;5009629;28;20627;-79
2023/05/27 02:38:25;;;;;;;9.27;3.20;;;8.10;99.90;;;;;;5017228;28;20124;-79
2023/05/27 02:40:51;;;;;;;10.90;3.30;;;8.10;99.90;;;;;;5024229;28;20045;-81
2023/05/27 02:43:17;;;;;;;14.10;3.28;;;8.10;99.90;;;;;;4997427;28;20706;-80
2023/05/27 02:45:42;;;;;;;11.38;3.65;;;8.10;99.90;;;;;;5012103;28;20494;-81
2023/05/27 02:48:12;;;;;;;10.55;3.47;;;8.10;99.90;;;;;;5006078;28;20110;-83
2023/05/27 02:50:39;;;;;;;10.25;3.65;;;9.80;99.90;;;;;;4999097;28;20056;-81
2023/05/27 02:53:04;;;;;;;9.02;3.10;;;8.00;99.90;;;;;;5011225;28;20033;-82
2023/05/27 02:55:30;;;;;;;9.93;3.17;;;7.90;99.90;;;;;;5004540;28;20048;-82
2023/05/27 02:57:55;;;;;;;9.45;2.65;;;10.00;99.90;;;;;;5010301;28;20053;-82
2023/05/27 03:00:21;;;;;;;11.18;3.63;;;9.20;99.90;;;;;;5005806;28;20042;-81
2023/05/27 03:02:47;;;;;;;8.43;3.40;;;7.90;99.90;;;;;;5008534;28;20045;-82
2023/05/27 03:05:14;;;;;;;11.45;3.03;;;10.20;99.90;;;;;;5008529;28;20034;-83
2023/05/27 03:07:43;;;;;;;8.82;2.90;;;7.90;99.90;;;;;;5011103;28;20268;-83
2023/05/27 03:10:09;;;;;;;7.93;3.42;;;7.90;99.90;;;;;;4997768;28;20033;-82
2023/05/27 03:12:34;;;;;;;11.13;3.08;;;7.90;99.90;;;;;;5011581;28;20071;-81
2023/05/27 03:15:00;;;;;;;10.15;3.03;;;7.90;99.90;;;;;;5006361;28;20030;-81
2023/05/27 03:17:26;;;;;;;10.52;3.38;;;10.00;99.90;;;;;;5010507;28;20061;-80
2023/05/27 03:19:52;;;;;;;12.25;3.70;;;7.80;99.90;;;;;;5008740;28;20485;-82
2023/05/27 03:22:18;;;;;;;13.38;3.80;;;8.00;99.90;;;;;;5011268;28;20046;-80
2023/05/27 03:24:44;;;;;;;16.10;3.80;;;8.00;99.90;;;;;;5002255;28;20050;-82
2023/05/27 03:27:10;;;;;;;10.38;3.55;;;8.10;99.90;;;;;;5002856;28;20049;-82
2023/05/27 03:29:36;;;;;;;11.73;4.07;;;8.00;99.90;;;;;;5008888;28;20061;-81
2023/05/27 03:32:02;;;;;;;11.32;3.53;;;9.10;99.90;;;;;;4977603;28;20042;-82
2023/05/27 03:34:27;;;;;;;11.02;3.70;;;8.70;99.90;;;;;;4991755;28;20378;-81
2023/05/27 03:36:53;;;;;;;14.43;3.20;;;8.10;99.90;;;;;;5009234;28;20049;-81
2023/05/27 03:39:19;;;;;;;12.20;3.97;;;9.60;99.90;;;;;;4992145;28;20045;-81
2023/05/27 03:41:45;;;;;;;17.52;3.70;;;8.10;99.90;;;;;;5010850;28;20049;-83
2023/05/27 03:44:10;;;;;;;12.55;3.83;;;8.20;99.90;;;;;;5010073;28;20111;-84
2023/05/27 03:46:36;;;;;;;11.45;3.45;;;9.20;99.90;;;;;;5009872;28;20060;-82
2023/05/27 03:49:02;;;;;;;13.63;3.70;;;8.20;99.90;;;;;;5001952;28;20046;-83
2023/05/27 03:51:27;;;;;;;9.70;3.35;;;10.00;99.90;;;;;;5003097;28;20046;-82
2023/05/27 03:53:53;;;;;;;14.00;4.00;;;8.30;99.90;;;;;;5008379;28;20112;-83
2023/05/27 03:56:19;;;;;;;13.15;3.40;;;9.30;99.90;;;;;;5004653;28;20049;-83
2023/05/27 03:58:45;;;;;;;14.02;3.78;;;9.80;99.90;;;;;;5010247;28;20050;-82
2023/05/27 04:01:11;;;;;;;13.90;4.10;;;9.50;99.90;;;;;;5007834;28;20113;-82
2023/05/27 04:03:37;;;;;;;14.20;4.22;;;8.40;99.90;;;;;;4976811;28;20054;-82
2023/05/27 04:06:03;;;;;;;16.65;3.58;;;8.50;99.90;;;;;;5008790;28;20042;-82
2023/05/27 04:08:28;;;;;;;13.75;3.85;;;10.40;99.90;;;;;;5009623;28;20069;-82
2023/05/27 04:10:55;;;;;;;15.70;3.67;;;8.60;99.90;;;;;;4992608;28;20120;-81
2023/05/27 04:13:21;;;;;;;16.70;4.63;;;8.60;99.90;;;;;;4992180;28;20061;-82
2023/05/27 04:15:46;;;;;;;13.20;3.63;;;8.70;99.90;;;;;;5002058;28;20050;-80
2023/05/27 04:18:12;;;;;;;15.75;3.67;;;8.70;99.90;;;;;;5001876;28;20050;-82
2023/05/27 04:20:40;;;;;;;10.75;3.45;;;8.70;99.90;;;;;;5009249;28;20081;-82
2023/05/27 04:23:12;;;;;;;10.98;3.67;;;8.80;99.90;;;;;;5009984;28;20054;-82
2023/05/27 04:25:39;;;;;;;13.18;3.42;;;8.80;99.90;;;;;;5009349;28;20038;-83
2023/05/27 04:28:05;;;;;;;17.70;4.28;;;8.80;99.90;;;;;;4983602;28;20046;-83
2023/05/27 04:30:31;;;;;;;12.05;3.80;;;8.90;99.90;;;;;;5010881;28;20073;-83
2023/05/27 04:32:57;;;;;;;20.13;3.60;;;9.40;99.90;;;;;;4991100;28;20050;-83
2023/05/27 04:35:23;;;;;;;16.88;3.83;;;9.00;99.90;;;;;;5020042;28;20098;-83
2023/05/27 04:37:49;;;;;;;12.10;3.67;;;10.30;99.90;;;;;;5015883;28;20445;-82
2023/05/27 04:40:14;;;;;;;12.93;3.72;;;9.00;99.90;;;;;;5002448;28;20054;-82
2023/05/27 04:42:40;;;;;;;13.10;3.13;;;9.00;99.90;;;;;;5009423;28;20049;-83
2023/05/27 04:45:08;;;;;;;17.65;3.75;;;11.00;99.90;;;;;;5009245;28;20042;-79
2023/05/27 04:47:36;;;;;;;10.25;3.28;;;9.10;99.90;;;;;;5009097;28;20047;-83
2023/05/27 04:50:03;;;;;;;16.88;3.88;;;9.10;99.90;;;;;;5009741;28;20045;-83
2023/05/27 04:52:29;;;;;;;16.48;3.78;;;9.20;99.90;;;;;;4986422;28;20042;-84
2023/05/27 04:54:55;;;;;;;15.05;4.20;;;11.00;99.90;;;;;;5005936;28;20478;-82
2023/05/27 04:57:21;;;;;;;17.45;4.32;;;9.20;99.90;;;;;;4982758;28;20042;-81
2023/05/27 05:00:18;;;;;;;15.85;3.88;;;10.90;99.90;;;;;;5002021;28;20561;-81
2023/05/27 05:02:47;;;;;;;17.08;3.42;;;9.10;99.90;;;;;;5008018;28;20046;-80
2023/05/27 05:05:12;;;;;;;14.15;4.55;;;10.80;99.90;;;;;;5000870;28;20389;-83
2023/05/27 05:07:43;;;;;;;14.25;4.00;;;9.20;99.90;;;;;;4994279;28;20062;-82
2023/05/27 05:10:11;;;;;;;14.95;3.78;;;11.30;99.90;;;;;;4988596;28;20526;-82
2023/05/27 05:12:37;;;;;;;15.57;3.80;;;9.20;99.90;;;;;;4989454;28;20132;-82
2023/05/27 05:15:03;;;;;;;17.77;4.28;;;10.50;99.90;;;;;;4979787;28;20050;-81
2023/05/27 05:17:29;;;;;;;17.15;4.47;;;9.20;99.90;;;;;;4979789;28;20364;-83
2023/05/27 05:19:55;;;;;;;13.43;4.10;;;9.20;99.90;;;;;;4968431;28;20540;-81
2023/05/27 05:22:22;;;;;;;15.82;3.85;;;9.20;99.90;;;;;;4962007;28;20046;-80
2023/05/27 05:24:49;;;;;;;17.63;4.35;;;11.20;99.90;;;;;;4984836;28;20134;-81
2023/05/27 05:27:15;;;;;;;15.15;4.13;;;10.20;99.90;;;;;;4972127;28;20070;-83
2023/05/27 05:29:41;;;;;;;17.38;3.70;;;9.20;99.90;;;;;;4980703;28;20074;-83
2023/05/27 05:32:11;;;;;;;16.27;3.63;;;11.00;99.90;;;;;;4988444;28;20444;-83
2023/05/27 05:34:37;;;;;;;12.82;3.60;;;10.20;99.90;;;;;;4988650;28;20061;-83
2023/05/27 05:37:03;;;;;;;13.50;3.58;;;9.20;99.90;;;;;;4980806;28;20042;-82
2023/05/27 05:39:29;;;;;;;15.73;3.28;;;9.30;99.90;;;;;;4988319;28;20097;-81
2023/05/27 05:41:57;;;;;;;14.30;3.78;;;10.10;99.90;;;;;;4988585;28;20046;-80
2023/05/27 05:44:23;;;;;;;14.98;3.72;;;9.30;99.90;;;;;;4987934;28;20047;-81
2023/05/27 05:46:49;;;;;;;14.00;3.03;;;9.30;99.90;;;;;;4981582;28;20121;-82
2023/05/27 05:49:15;;;;;;;15.35;4.10;;;9.30;99.90;;;;;;4971286;28;20154;-82
2023/05/27 05:51:40;;;;;;;18.38;3.60;;;9.40;99.90;;;;;;4988079;28;20046;-82
2023/05/27 05:54:06;;;;;;;15.30;4.18;;;10.50;99.90;;;;;;4987545;28;20085;-81
2023/05/27 05:56:32;;;;;;;14.00;4.00;;;10.40;99.90;;;;;;4960117;28;20126;-81
2023/05/27 05:58:58;;;;;;;18.08;3.88;;;9.40;99.90;;;;;;4980622;28;20074;-82
2023/05/27 06:01:26;;;;;;;18.40;4.28;;;9.50;99.90;;;;;;4988510;28;20030;-83
2023/05/27 06:03:52;;;;;;;16.42;4.63;;;9.50;99.90;;;;;;4988614;28;20093;-82
2023/05/27 06:06:18;;;;;;;13.85;3.60;;;9.50;99.90;;;;;;4985645;28;20102;-82
2023/05/27 06:08:44;;;;;;;16.77;3.92;;;9.60;99.90;;;;;;5013372;28;20038;-81
2023/05/27 06:11:10;;;;;;;20.20;4.40;;;11.90;99.90;;;;;;5007846;28;20049;-80
2023/05/27 06:13:35;;;;;;;19.10;5.57;;;9.70;99.90;;;;;;5003751;28;20076;-81
2023/05/27 06:16:01;;;;;;;39.95;19.13;;;9.80;99.90;;;;;;5013843;28;20121;-83
2023/05/27 06:18:27;;;;;;;20.80;5.50;;;9.80;99.90;;;;;;5009055;28;20046;-81
2023/05/27 06:20:52;;;;;;;17.40;5.00;;;9.70;99.90;;;;;;5002731;28;20496;-83
2023/05/27 06:23:18;;;;;;;20.02;4.40;;;9.90;99.90;;;;;;4992135;28;20570;-83
2023/05/27 06:25:44;;;;;;;25.02;4.80;;;10.00;99.90;;;;;;5008532;28;20038;-83
2023/05/27 06:28:09;;;;;;;16.77;4.25;;;10.40;99.90;;;;;;5021575;28;20099;-83
2023/05/27 06:30:42;;;;;;;16.23;4.22;;;12.30;99.90;;;;;;5027348;28;20042;-83
2023/05/27 06:33:08;;;;;;;15.65;4.53;;;10.20;99.90;;;;;;4997763;28;20045;-82
2023/05/27 06:35:48;;;;;;;25.17;4.70;;;10.20;99.90;;;;;;4999972;28;20073;-84
2023/05/27 06:38:14;;;;;;;20.23;4.72;;;10.20;99.90;;;;;;4991307;28;20100;-83
2023/05/27 06:40:40;;;;;;;17.90;4.15;;;10.30;99.90;;;;;;5015212;28;20052;-81
2023/05/27 06:43:11;;;;;;;21.60;4.88;;;10.40;99.90;;;;;;5028225;28;20029;-82
2023/05/27 06:45:37;;;;;;;16.85;3.92;;;10.50;99.90;;;;;;5000048;28;20030;-82
2023/05/27 06:48:03;;;;;;;20.52;5.05;;;10.50;99.90;;;;;;5010748;28;20048;-81
2023/05/27 06:50:28;;;;;;;21.33;4.28;;;10.60;99.90;;;;;;5003300;28;20050;-83
2023/05/27 06:52:54;;;;;;;17.65;4.15;;;10.70;99.90;;;;;;5004858;28;20034;-81
2023/05/27 06:55:19;;;;;;;17.42;4.65;;;10.80;99.90;;;;;;5009891;28;20042;-80
2023/05/27 06:57:45;;;;;;;18.17;4.03;;;10.80;99.90;;;;;;5011872;28;20042;-83
2023/05/27 07:00:11;;;;;;;23.58;4.88;;;10.80;99.90;;;;;;4997588;28;20034;-82
2023/05/27 07:02:37;;;;;;;21.42;4.90;;;10.90;99.90;;;;;;4984877;28;20433;-81
2023/05/27 07:05:03;;;;;;;16.65;3.40;;;10.90;99.90;;;;;;5010622;28;20060;-81
2023/05/27 07:07:28;;;;;;;27.65;4.80;;;11.00;99.90;;;;;;4982732;28;20058;-82
2023/05/27 07:09:54;;;;;;;27.45;4.63;;;12.20;99.90;;;;;;5000446;28;20046;-84
2023/05/27 07:12:20;;;;;;;17.77;4.57;;;10.90;99.90;;;;;;5010250;28;20105;-82
2023/05/27 07:14:46;;;;;;;23.40;5.13;;;12.50;99.90;;;;;;4993807;28;20072;-84
2023/05/27 07:17:11;;;;;;;22.38;4.95;;;11.10;99.90;;;;;;5003173;28;20045;-84
2023/05/27 07:19:37;;;;;;;15.43;5.30;;;11.20;99.90;;;;;;5009335;28;20049;-84
2023/05/27 07:22:03;;;;;;;20.98;4.60;;;12.30;99.90;;;;;;5002427;28;20556;-84
2023/05/27 07:24:29;;;;;;;16.05;4.43;;;12.10;99.90;;;;;;5002128;28;20073;-85
2023/05/27 07:26:55;;;;;;;21.83;3.97;;;11.40;99.90;;;;;;5011542;28;20041;-81
2023/05/27 07:29:20;;;;;;;18.33;4.63;;;13.00;99.90;;;;;;5008746;28;20049;-81
2023/05/27 07:31:47;;;;;;;17.08;4.63;;;11.40;99.90;;;;;;5003354;28;20042;-85
2023/05/27 07:34:13;;;;;;;15.32;4.28;;;11.50;99.90;;;;;;5005810;28;20041;-80
2023/05/27 07:36:41;;;;;;;12.23;4.25;;;11.50;99.90;;;;;;4314621;28;10000707;-84
2023/05/27 07:39:07;;;;;;;18.60;4.32;;;11.50;99.90;;;;;;5005030;28;20070;-83
2023/05/27 07:41:36;;;;;;;16.90;4.85;;;11.60;99.90;;;;;;5005440;28;20080;-83
2023/05/27 07:44:01;;;;;;;22.73;4.75;;;11.70;99.90;;;;;;4983736;28;20076;-83
2023/05/27 07:46:32;;;;;;;18.60;4.40;;;12.90;99.90;;;;;;5006738;28;20045;-83
2023/05/27 07:48:58;;;;;;;22.48;5.45;;;13.60;99.90;;;;;;5008467;28;20074;-84
2023/05/27 07:51:23;;;;;;;23.58;7.32;;;11.90;99.90;;;;;;4977665;28;20627;-84
2023/05/27 07:53:50;;;;;;;22.40;6.20;;;13.70;99.90;;;;;;4991414;28;20049;-83
2023/05/27 07:56:22;;;;;;;18.63;4.65;;;14.10;99.90;;;;;;5005209;28;20034;-85
2023/05/27 07:58:47;;;;;;;18.67;4.78;;;12.10;99.90;;;;;;5001584;28;20229;-79
2023/05/27 08:01:13;;;;;;;16.35;5.03;;;12.90;99.90;;;;;;5003174;28;20085;-80
2023/05/27 08:03:38;;;;;;;19.17;5.10;;;12.50;99.90;;;;;;5001727;28;20129;-82
2023/05/27 08:06:04;;;;;;;18.67;4.18;;;14.00;99.90;;;;;;5004468;28;20072;-80
2023/05/27 08:08:30;;;;;;;15.82;3.97;;;12.30;99.90;;;;;;4992279;28;20060;-81
2023/05/27 08:10:57;;;;;;;16.13;4.18;;;13.60;99.90;;;;;;5000732;28;20050;-82
2023/05/27 08:13:22;;;;;;;21.50;4.82;;;13.60;99.90;;;;;;5005891;28;20045;-81
2023/05/27 08:15:48;;;;;;;20.75;5.07;;;12.40;99.90;;;;;;5008025;28;20104;-83
2023/05/27 08:18:13;;;;;;;23.45;4.72;;;12.40;99.90;;;;;;5009120;28;20054;-82
2023/05/27 08:20:39;;;;;;;16.80;3.90;;;12.40;99.90;;;;;;5010824;28;20498;-82
2023/05/27 08:23:05;;;;;;;17.10;4.30;;;12.50;99.90;;;;;;4997876;28;20488;-83
2023/05/27 08:25:31;;;;;;;19.75;4.80;;;12.60;99.90;;;;;;5003857;28;20465;-83
2023/05/27 08:28:01;;;;;;;15.52;4.32;;;12.70;99.90;;;;;;5009455;28;20509;-83
2023/05/27 08:30:28;;;;;;;19.73;5.35;;;12.80;99.90;;;;;;5005801;28;20049;-83
2023/05/27 08:32:54;;;;;;;25.67;5.15;;;12.80;99.90;;;;;;5001803;28;20057;-83
2023/05/27 08:35:20;;;;;;;16.08;5.43;;;12.90;99.90;;;;;;5005695;28;20050;-81
2023/05/27 08:37:46;;;;;;;16.52;4.38;;;12.90;99.90;;;;;;5000856;28;20037;-82
2023/05/27 08:40:15;;;;;;;23.65;5.80;;;12.90;99.90;;;;;;4988595;28;20045;-83
2023/05/27 08:42:41;;;;;;;17.58;5.15;;;12.90;99.90;;;;;;5001437;28;20091;-84
2023/05/27 08:45:08;;;;;;;17.65;5.18;;;13.00;99.90;;;;;;5007484;28;20081;-81
2023/05/27 08:47:33;;;;;;;18.35;5.00;;;13.00;99.90;;;;;;4998824;28;20045;-82
2023/05/27 08:49:59;;;;;;;15.80;4.93;;;13.90;99.90;;;;;;5002842;28;20056;-82
2023/05/27 08:52:27;;;;;;;13.77;4.68;;;13.10;99.90;;;;;;4990230;28;20076;-83
2023/05/27 08:54:56;;;;;;;14.95;4.13;;;13.20;99.90;;;;;;5006489;28;20042;-83
2023/05/27 08:57:25;;;;;;;22.45;5.47;;;13.20;99.90;;;;;;5007040;28;20053;-83
2023/05/27 08:59:51;;;;;;;16.55;4.88;;;13.30;99.90;;;;;;5008299;28;20070;-84
2023/05/27 09:02:18;;;;;;;21.92;4.72;;;14.10;99.90;;;;;;5008867;28;20073;-81
2023/05/27 09:04:46;;;;;;;17.23;5.00;;;14.00;99.90;;;;;;5008107;28;20628;-83
2023/05/27 09:07:11;;;;;;;18.15;5.35;;;15.20;99.90;;;;;;5002353;28;20072;-85
2023/05/27 09:09:38;;;;;;;22.30;5.43;;;13.50;99.90;;;;;;5009285;28;20049;-84
2023/05/27 09:12:05;;;;;;;17.02;4.45;;;13.90;99.90;;;;;;4991922;28;20133;-84
2023/05/27 09:14:32;;;;;;;21.45;5.20;;;13.60;99.90;;;;;;4983584;28;20054;-87
2023/05/27 09:17:05;;;;;;;23.98;4.85;;;13.70;99.90;;;;;;4990844;28;20275;-86
2023/05/27 09:19:31;;;;;;;18.10;6.00;;;13.70;99.90;;;;;;4991445;28;20505;-86
2023/05/27 09:21:56;;;;;;;22.88;5.88;;;14.60;99.90;;;;;;5008828;28;20038;-85
2023/05/27 09:24:26;;;;;;;25.90;6.25;;;15.80;99.90;;;;;;4991484;28;20040;-86
2023/05/27 09:26:52;;;;;;;23.85;5.78;;;15.60;99.90;;;;;;5009674;28;20045;-86
2023/05/27 09:29:25;;;;;;;16.95;5.20;;;14.00;99.90;;;;;;4989986;28;20085;-86
2023/05/27 09:31:56;;;;;;;17.90;5.13;;;14.00;99.90;;;;;;5007739;28;20117;-86
2023/05/27 09:34:22;;;;;;;18.73;5.25;;;14.10;99.90;;;;;;5007255;28;20060;-84
2023/05/27 09:36:51;;;;;;;18.42;5.45;;;15.60;99.90;;;;;;5007269;28;20034;-85
2023/05/27 09:39:18;;;;;;;18.13;4.90;;;14.20;99.90;;;;;;5007362;28;20578;-85
2023/05/27 09:41:53;;;;;;;17.67;4.95;;;14.30;99.90;;;;;;5007463;28;20259;-85
2023/05/27 09:44:18;;;;;;;19.90;5.00;;;14.30;99.90;;;;;;5006522;28;20037;-86
2023/05/27 09:46:48;;;;;;;21.75;5.18;;;14.40;99.90;;;;;;5009247;28;20375;-86
2023/05/27 09:49:15;;;;;;;17.13;4.63;;;14.40;99.90;;;;;;4991106;28;20034;-83
2023/05/27 09:51:41;;;;;;;22.35;4.90;;;14.50;99.90;;;;;;5008564;28;20148;-85
2023/05/27 09:54:08;;;;;;;17.63;5.32;;;14.60;99.90;;;;;;5008875;28;20050;-85
2023/05/27 09:56:34;;;;;;;14.68;4.57;;;14.60;99.90;;;;;;5009289;28;20042;-85
2023/05/27 09:59:00;;;;;;;13.63;3.65;;;14.80;99.90;;;;;;4991086;28;20088;-86
2023/05/27 10:01:30;;;;;;;19.02;5.50;;;14.90;99.90;;;;;;5008750;28;20567;-84
2023/05/27 10:03:56;;;;;;;22.45;5.07;;;15.40;99.90;;;;;;4990761;28;20046;-85
2023/05/27 10:06:25;;;;;;;17.73;4.60;;;16.30;99.90;;;;;;5008459;28;20045;-84
2023/05/27 10:08:55;;;;;;;18.30;4.80;;;15.50;99.90;;;;;;5008822;28;20089;-84
2023/05/27 10:11:21;;;;;;;19.92;5.00;;;16.00;99.90;;;;;;5016400;28;20042;-85
2023/05/27 10:13:48;;;;;;;21.08;4.90;;;15.20;99.90;;;;;;5001471;28;20494;-85
2023/05/27 10:16:21;;;;;;;21.33;4.57;;;16.40;99.90;;;;;;4993571;28;20046;-86
2023/05/27 10:18:52;;;;;;;17.25;4.40;;;15.20;99.90;;;;;;5000740;28;20037;-86
2023/05/27 10:21:23;;;;;;;17.65;4.30;;;15.30;99.90;;;;;;4975448;28;20041;-86
2023/05/27 10:23:59;;;;;;;19.10;4.85;;;16.50;99.90;;;;;;5000932;28;20042;-85
2023/05/27 10:26:40;;;;;;;16.75;5.03;;;16.70;99.90;;;;;;5007678;28;20038;-86
2023/05/27 10:29:11;;;;;;;18.92;4.65;;;15.60;99.90;;;;;;4991162;28;20412;-84
2023/05/27 10:31:52;;;;;;;13.10;4.40;;;15.60;99.90;;;;;;5008803;28;20453;-85
2023/05/27 10:34:18;;;;;;;21.63;4.97;;;15.70;99.90;;;;;;5007698;28;20042;-85
2023/05/27 10:36:45;;;;;;;15.85;4.25;;;16.70;99.90;;;;;;5008320;28;20125;-86
2023/05/27 10:39:18;;;;;;;16.48;5.20;;;15.80;99.90;;;;;;5007898;28;20104;-86
2023/05/27 10:41:50;;;;;;;10.82;4.32;;;15.90;99.90;;;;;;4991382;28;20105;-86
2023/05/27 10:44:35;;;;;;;14.13;4.97;;;16.00;99.90;;;;;;5008745;28;20042;-86
2023/05/27 10:47:01;;;;;;;24.35;5.50;;;16.20;99.90;;;;;;5001267;28;20478;-87
2023/05/27 10:49:35;;;;;;;13.75;4.32;;;16.20;99.90;;;;;;5008298;28;20046;-86
2023/05/27 10:52:12;;;;;;;16.50;4.90;;;16.30;99.90;;;;;;5008713;28;20490;-86
2023/05/27 10:54:39;;;;;;;15.65;5.32;;;16.30;99.90;;;;;;5008189;28;20344;-86
2023/05/27 10:57:06;;;;;;;15.15;4.65;;;16.50;99.90;;;;;;5012031;28;20100;-87
2023/05/27 10:59:55;;;;;;;13.98;4.32;;;16.60;99.90;;;;;;4978761;28;20046;-87
2023/05/27 11:02:21;;;;;;;24.33;5.60;;;16.80;99.90;;;;;;5010772;28;20153;-86
2023/05/27 11:04:51;;;;;;;16.33;4.15;;;16.90;99.90;;;;;;5011961;28;20173;-85
2023/05/27 11:07:20;;;;;;;12.80;4.50;;;16.90;99.90;;;;;;5008563;28;20140;-86
2023/05/27 11:09:51;;;;;;;16.63;4.43;;;17.00;99.90;;;;;;5012191;28;20056;-88
2023/05/27 11:12:23;;;;;;;21.50;4.53;;;17.20;99.90;;;;;;5011698;28;20120;-87
2023/05/27 11:14:53;;;;;;;16.88;4.57;;;17.20;99.90;;;;;;4993400;28;20068;-87
2023/05/27 11:17:20;;;;;;;17.58;4.85;;;17.30;99.90;;;;;;4993916;28;20481;-85
2023/05/27 11:19:45;;;;;;;19.73;5.20;;;17.50;99.90;;;;;;5012270;28;20262;-88
2023/05/27 11:22:12;;;;;;;16.88;5.47;;;17.60;99.90;;;;;;5010677;28;20037;-87
2023/05/27 11:24:38;;;;;;;20.25;5.78;;;19.00;99.90;;;;;;5010917;28;20112;-87
2023/05/27 11:27:11;;;;;;;14.98;4.70;;;17.70;99.90;;;;;;5012228;28;20069;-88
2023/05/27 11:29:37;;;;;;;15.60;4.60;;;17.90;99.90;;;;;;5011271;28;20120;-87
2023/05/27 11:32:05;;;;;;;15.25;5.28;;;18.00;99.90;;;;;;4993418;28;20405;-87
2023/05/27 11:34:33;;;;;;;17.83;5.03;;;18.10;99.90;;;;;;4977640;28;20042;-87
2023/05/27 11:37:04;;;;;;;14.95;5.40;;;18.20;99.90;;;;;;4992821;28;20065;-87
2023/05/27 11:39:32;;;;;;;14.48;5.22;;;18.30;99.90;;;;;;5011144;28;20061;-85
2023/05/27 11:41:57;;;;;;;14.10;4.45;;;19.10;99.90;;;;;;4986233;28;20042;-87
2023/05/27 11:44:24;;;;;;;15.95;5.75;;;18.60;99.90;;;;;;5010867;28;20048;-87
2023/05/27 11:46:57;;;;;;;15.45;5.03;;;19.40;99.90;;;;;;5011664;28;20410;-88
2023/05/27 11:49:23;;;;;;;13.23;4.85;;;18.80;99.90;;;;;;5011084;28;20042;-87
2023/05/27 11:51:55;;;;;;;14.57;5.15;;;19.10;99.90;;;;;;5011281;28;20038;-87
2023/05/27 11:54:27;;;;;;;18.30;5.35;;;19.30;99.90;;;;;;5010769;28;20548;-86
2023/05/27 11:56:54;;;;;;;18.58;4.60;;;19.50;99.90;;;;;;5011489;28;20093;-88
2023/05/27 11:59:22;;;;;;;15.57;4.68;;;19.60;99.90;;;;;;4999269;28;20092;-80
2023/05/27 12:01:48;;;;;;;15.45;4.75;;;19.70;99.90;;;;;;5013318;28;20042;-81
2023/05/27 12:04:14;;;;;;;17.25;5.72;;;19.80;99.90;;;;;;5015088;28;20470;-82
2023/05/27 12:06:40;;;;;;;14.73;6.13;;;19.90;99.90;;;;;;5009333;28;20084;-81
2023/05/27 12:09:08;;;;;;;10.70;4.20;;;20.10;99.90;;;;;;4990180;28;20057;-80
2023/05/27 12:11:34;;;;;;;18.75;5.55;;;20.40;99.90;;;;;;4983031;28;20112;-81
2023/05/27 12:14:00;;;;;;;16.00;5.05;;;20.50;99.90;;;;;;4982518;28;20053;-81
2023/05/27 12:16:26;;;;;;;14.13;4.88;;;20.60;99.90;;;;;;4983207;28;20050;-82
2023/05/27 12:18:52;;;;;;;14.73;4.60;;;20.60;99.90;;;;;;4981321;28;20476;-82
2023/05/27 12:21:18;;;;;;;14.27;4.72;;;20.40;99.90;;;;;;4984530;28;20051;-82
2023/05/27 12:23:44;;;;;;;13.55;5.05;;;20.60;99.90;;;;;;4964161;28;20081;-81
2023/05/27 12:26:12;;;;;;;13.38;4.57;;;20.70;99.90;;;;;;4982523;28;20454;-81
2023/05/27 12:28:37;;;;;;;14.98;5.47;;;21.00;99.90;;;;;;4987780;28;20077;-82
2023/05/27 12:31:04;;;;;;;19.90;5.60;;;20.80;99.90;;;;;;4989464;28;20070;-81
2023/05/27 12:33:30;;;;;;;15.93;4.50;;;20.80;99.90;;;;;;4982480;28;20094;-82
2023/05/27 12:35:56;;;;;;;15.65;5.25;;;20.80;99.90;;;;;;4971460;28;20042;-82
2023/05/27 12:38:22;;;;;;;13.32;4.78;;;20.80;99.90;;;;;;4989965;28;20042;-80
2023/05/27 12:40:48;;;;;;;12.77;5.15;;;20.90;99.90;;;;;;4986596;28;20038;-81